sensor_id;sensor_type;location;lat;lon;timestamp;P1;durP1;ratioP1;P2;durP2;ratioP2
9834;SDS011;4956;50.996;13.716;2023-01-19T00:01:28;17.73;;;9.65;;
9834;SDS011;4956;50.996;13.716;2023-01-19T00:04:49;16.33;;;9.40;;
9834;SDS011;4956;50.996;13.716;2023-01-19T00:08:09;16.27;;;9.70;;
9834;SDS011;4956;50.996;13.716;2023-01-19T00:11:36;15.82;;;9.65;;
9834;SDS011;4956;50.996;13.716;2023-01-19T00:14:56;16.75;;;9.40;;
9834;SDS011;4956;50.996;13.716;2023-01-19T00:18:17;17.15;;;9.27;;
9834;SDS011;4956;50.996;13.716;2023-01-19T00:21:37;17.60;;;9.52;;
9834;SDS011;4956;50.996;13.716;2023-01-19T00:24:57;15.38;;;9.18;;
9834;SDS011;4956;50.996;13.716;2023-01-19T00:28:18;14.57;;;8.75;;
9834;SDS011;4956;50.996;13.716;2023-01-19T00:31:38;14.35;;;8.93;;
9834;SDS011;4956;50.996;13.716;2023-01-19T00:34:58;13.80;;;8.63;;
9834;SDS011;4956;50.996;13.716;2023-01-19T00:38:19;18.13;;;8.40;;
9834;SDS011;4956;50.996;13.716;2023-01-19T00:41:39;16.42;;;8.52;;
9834;SDS011;4956;50.996;13.716;2023-01-19T00:45:19;15.93;;;8.35;;
9834;SDS011;4956;50.996;13.716;2023-01-19T00:48:41;15.43;;;7.63;;
9834;SDS011;4956;50.996;13.716;2023-01-19T00:52:01;14.70;;;8.07;;
9834;SDS011;4956;50.996;13.716;2023-01-19T00:55:21;14.20;;;8.18;;
9834;SDS011;4956;50.996;13.716;2023-01-19T00:58:42;18.08;;;9.05;;
9834;SDS011;4956;50.996;13.716;2023-01-19T01:02:04;17.30;;;8.38;;
9834;SDS011;4956;50.996;13.716;2023-01-19T01:05:24;12.63;;;7.13;;
9834;SDS011;4956;50.996;13.716;2023-01-19T01:08:44;11.57;;;7.10;;
9834;SDS011;4956;50.996;13.716;2023-01-19T01:12:05;13.60;;;7.20;;
9834;SDS011;4956;50.996;13.716;2023-01-19T01:15:26;11.57;;;7.07;;
9834;SDS011;4956;50.996;13.716;2023-01-19T01:18:46;17.08;;;7.38;;
9834;SDS011;4956;50.996;13.716;2023-01-19T01:22:07;12.75;;;6.72;;
9834;SDS011;4956;50.996;13.716;2023-01-19T01:25:28;11.27;;;6.60;;
9834;SDS011;4956;50.996;13.716;2023-01-19T01:28:50;15.57;;;6.95;;
9834;SDS011;4956;50.996;13.716;2023-01-19T01:32:10;12.38;;;7.07;;
9834;SDS011;4956;50.996;13.716;2023-01-19T01:35:32;10.85;;;6.38;;
9834;SDS011;4956;50.996;13.716;2023-01-19T01:38:54;11.07;;;6.57;;
9834;SDS011;4956;50.996;13.716;2023-01-19T01:42:16;10.93;;;6.45;;
9834;SDS011;4956;50.996;13.716;2023-01-19T01:45:38;12.15;;;6.75;;
9834;SDS011;4956;50.996;13.716;2023-01-19T01:49:06;10.18;;;5.85;;
9834;SDS011;4956;50.996;13.716;2023-01-19T01:52:31;11.65;;;6.25;;
9834;SDS011;4956;50.996;13.716;2023-01-19T01:55:53;9.60;;;6.18;;
9834;SDS011;4956;50.996;13.716;2023-01-19T01:59:14;11.13;;;6.65;;
9834;SDS011;4956;50.996;13.716;2023-01-19T02:02:44;9.88;;;5.97;;
9834;SDS011;4956;50.996;13.716;2023-01-19T02:06:11;11.40;;;6.47;;
9834;SDS011;4956;50.996;13.716;2023-01-19T02:09:33;10.27;;;6.60;;
9834;SDS011;4956;50.996;13.716;2023-01-19T02:13:13;12.55;;;6.28;;
9834;SDS011;4956;50.996;13.716;2023-01-19T02:16:40;9.85;;;6.00;;
9834;SDS011;4956;50.996;13.716;2023-01-19T02:20:00;11.25;;;6.63;;
9834;SDS011;4956;50.996;13.716;2023-01-19T02:23:32;12.73;;;6.55;;
9834;SDS011;4956;50.996;13.716;2023-01-19T02:26:57;11.02;;;6.40;;
9834;SDS011;4956;50.996;13.716;2023-01-19T02:30:18;10.68;;;5.78;;
9834;SDS011;4956;50.996;13.716;2023-01-19T02:33:39;10.02;;;5.40;;
9834;SDS011;4956;50.996;13.716;2023-01-19T02:37:01;10.75;;;5.88;;
9834;SDS011;4956;50.996;13.716;2023-01-19T02:40:25;12.10;;;5.90;;
9834;SDS011;4956;50.996;13.716;2023-01-19T02:43:46;9.60;;;6.18;;
9834;SDS011;4956;50.996;13.716;2023-01-19T02:47:07;10.00;;;5.63;;
9834;SDS011;4956;50.996;13.716;2023-01-19T02:54:11;10.57;;;5.78;;
9834;SDS011;4956;50.996;13.716;2023-01-19T02:57:48;8.75;;;5.43;;
9834;SDS011;4956;50.996;13.716;2023-01-19T03:09:24;10.98;;;6.07;;
9834;SDS011;4956;50.996;13.716;2023-01-19T03:12:53;8.48;;;4.88;;
9834;SDS011;4956;50.996;13.716;2023-01-19T03:16:22;7.75;;;4.70;;
9834;SDS011;4956;50.996;13.716;2023-01-19T03:20:03;8.82;;;5.03;;
9834;SDS011;4956;50.996;13.716;2023-01-19T03:23:25;8.63;;;4.68;;
9834;SDS011;4956;50.996;13.716;2023-01-19T03:26:48;7.93;;;4.80;;
9834;SDS011;4956;50.996;13.716;2023-01-19T03:30:19;7.70;;;4.38;;
9834;SDS011;4956;50.996;13.716;2023-01-19T03:33:42;6.63;;;4.13;;
9834;SDS011;4956;50.996;13.716;2023-01-19T03:37:06;8.82;;;4.40;;
9834;SDS011;4956;50.996;13.716;2023-01-19T03:40:28;7.00;;;4.25;;
9834;SDS011;4956;50.996;13.716;2023-01-19T03:43:49;7.00;;;4.00;;
9834;SDS011;4956;50.996;13.716;2023-01-19T03:47:11;8.00;;;4.38;;
9834;SDS011;4956;50.996;13.716;2023-01-19T03:50:32;6.13;;;3.72;;
9834;SDS011;4956;50.996;13.716;2023-01-19T03:53:53;7.40;;;4.20;;
9834;SDS011;4956;50.996;13.716;2023-01-19T03:57:13;6.47;;;3.70;;
9834;SDS011;4956;50.996;13.716;2023-01-19T04:00:33;6.70;;;3.70;;
9834;SDS011;4956;50.996;13.716;2023-01-19T04:03:55;9.00;;;4.20;;
9834;SDS011;4956;50.996;13.716;2023-01-19T04:07:15;7.07;;;3.90;;
9834;SDS011;4956;50.996;13.716;2023-01-19T04:10:36;6.93;;;4.03;;
9834;SDS011;4956;50.996;13.716;2023-01-19T04:13:56;6.82;;;4.10;;
9834;SDS011;4956;50.996;13.716;2023-01-19T04:17:17;5.78;;;3.28;;
9834;SDS011;4956;50.996;13.716;2023-01-19T04:20:37;5.50;;;3.33;;
9834;SDS011;4956;50.996;13.716;2023-01-19T04:23:58;5.35;;;3.45;;
9834;SDS011;4956;50.996;13.716;2023-01-19T04:27:18;4.88;;;3.50;;
9834;SDS011;4956;50.996;13.716;2023-01-19T04:30:38;4.57;;;2.90;;
9834;SDS011;4956;50.996;13.716;2023-01-19T04:33:59;5.28;;;2.90;;
9834;SDS011;4956;50.996;13.716;2023-01-19T04:37:19;4.53;;;2.80;;
9834;SDS011;4956;50.996;13.716;2023-01-19T04:40:39;7.82;;;2.75;;
9834;SDS011;4956;50.996;13.716;2023-01-19T04:44:00;6.03;;;2.88;;
9834;SDS011;4956;50.996;13.716;2023-01-19T04:47:20;4.63;;;2.80;;
9834;SDS011;4956;50.996;13.716;2023-01-19T04:50:40;6.10;;;2.95;;
9834;SDS011;4956;50.996;13.716;2023-01-19T04:54:01;4.43;;;2.35;;
9834;SDS011;4956;50.996;13.716;2023-01-19T04:57:22;5.22;;;2.75;;
9834;SDS011;4956;50.996;13.716;2023-01-19T05:00:42;6.05;;;2.40;;
9834;SDS011;4956;50.996;13.716;2023-01-19T05:04:02;4.78;;;2.50;;
9834;SDS011;4956;50.996;13.716;2023-01-19T05:07:25;6.95;;;2.38;;
9834;SDS011;4956;50.996;13.716;2023-01-19T05:10:46;5.15;;;2.40;;
9834;SDS011;4956;50.996;13.716;2023-01-19T05:14:07;4.25;;;2.40;;
9834;SDS011;4956;50.996;13.716;2023-01-19T05:17:27;5.85;;;2.70;;
9834;SDS011;4956;50.996;13.716;2023-01-19T05:20:48;5.00;;;2.60;;
9834;SDS011;4956;50.996;13.716;2023-01-19T05:24:08;3.83;;;2.75;;
9834;SDS011;4956;50.996;13.716;2023-01-19T05:27:28;5.47;;;2.47;;
9834;SDS011;4956;50.996;13.716;2023-01-19T05:30:49;6.07;;;2.85;;
9834;SDS011;4956;50.996;13.716;2023-01-19T05:34:10;4.57;;;2.67;;
9834;SDS011;4956;50.996;13.716;2023-01-19T05:37:30;4.82;;;3.13;;
9834;SDS011;4956;50.996;13.716;2023-01-19T05:40:57;7.30;;;3.25;;
9834;SDS011;4956;50.996;13.716;2023-01-19T05:44:17;6.18;;;3.20;;
9834;SDS011;4956;50.996;13.716;2023-01-19T05:47:38;4.45;;;2.80;;
9834;SDS011;4956;50.996;13.716;2023-01-19T05:50:59;5.70;;;2.83;;
9834;SDS011;4956;50.996;13.716;2023-01-19T05:54:20;6.35;;;2.90;;
9834;SDS011;4956;50.996;13.716;2023-01-19T05:57:40;3.67;;;2.72;;
9834;SDS011;4956;50.996;13.716;2023-01-19T06:01:02;6.20;;;2.60;;
9834;SDS011;4956;50.996;13.716;2023-01-19T06:04:27;5.60;;;2.63;;
9834;SDS011;4956;50.996;13.716;2023-01-19T06:07:47;4.68;;;2.60;;
9834;SDS011;4956;50.996;13.716;2023-01-19T06:11:07;4.75;;;2.55;;
9834;SDS011;4956;50.996;13.716;2023-01-19T06:14:28;6.03;;;2.85;;
9834;SDS011;4956;50.996;13.716;2023-01-19T06:17:48;5.68;;;2.78;;
9834;SDS011;4956;50.996;13.716;2023-01-19T06:21:08;5.53;;;2.88;;
9834;SDS011;4956;50.996;13.716;2023-01-19T06:24:29;5.05;;;2.80;;
9834;SDS011;4956;50.996;13.716;2023-01-19T06:27:49;5.80;;;3.00;;
9834;SDS011;4956;50.996;13.716;2023-01-19T06:31:10;5.15;;;2.95;;
9834;SDS011;4956;50.996;13.716;2023-01-19T06:34:30;5.82;;;3.50;;
9834;SDS011;4956;50.996;13.716;2023-01-19T06:37:51;6.07;;;2.95;;
9834;SDS011;4956;50.996;13.716;2023-01-19T06:41:11;6.93;;;3.25;;
9834;SDS011;4956;50.996;13.716;2023-01-19T06:44:31;4.60;;;2.85;;
9834;SDS011;4956;50.996;13.716;2023-01-19T06:47:52;5.88;;;3.53;;
9834;SDS011;4956;50.996;13.716;2023-01-19T06:51:12;4.82;;;2.92;;
9834;SDS011;4956;50.996;13.716;2023-01-19T06:54:32;5.95;;;3.05;;
9834;SDS011;4956;50.996;13.716;2023-01-19T06:57:57;6.75;;;4.25;;
9834;SDS011;4956;50.996;13.716;2023-01-19T07:01:18;4.68;;;3.00;;
9834;SDS011;4956;50.996;13.716;2023-01-19T07:04:38;4.00;;;2.53;;
9834;SDS011;4956;50.996;13.716;2023-01-19T07:07:58;4.47;;;2.78;;
9834;SDS011;4956;50.996;13.716;2023-01-19T07:11:19;5.03;;;2.85;;
9834;SDS011;4956;50.996;13.716;2023-01-19T07:14:39;7.32;;;3.15;;
9834;SDS011;4956;50.996;13.716;2023-01-19T07:17:59;8.63;;;3.63;;
9834;SDS011;4956;50.996;13.716;2023-01-19T07:21:24;6.22;;;2.97;;
9834;SDS011;4956;50.996;13.716;2023-01-19T07:24:44;4.95;;;2.90;;
9834;SDS011;4956;50.996;13.716;2023-01-19T07:28:05;4.72;;;2.60;;
9834;SDS011;4956;50.996;13.716;2023-01-19T07:31:25;5.20;;;3.00;;
9834;SDS011;4956;50.996;13.716;2023-01-19T07:34:45;5.85;;;2.80;;
9834;SDS011;4956;50.996;13.716;2023-01-19T07:38:06;5.85;;;2.90;;
9834;SDS011;4956;50.996;13.716;2023-01-19T07:41:26;5.57;;;2.97;;
9834;SDS011;4956;50.996;13.716;2023-01-19T07:44:46;4.47;;;2.72;;
9834;SDS011;4956;50.996;13.716;2023-01-19T07:48:07;4.35;;;2.50;;
9834;SDS011;4956;50.996;13.716;2023-01-19T07:51:27;4.20;;;2.80;;
9834;SDS011;4956;50.996;13.716;2023-01-19T07:54:47;6.65;;;2.80;;
9834;SDS011;4956;50.996;13.716;2023-01-19T07:58:10;5.65;;;2.85;;
9834;SDS011;4956;50.996;13.716;2023-01-19T08:01:30;4.40;;;2.40;;
9834;SDS011;4956;50.996;13.716;2023-01-19T08:04:50;4.03;;;2.40;;
9834;SDS011;4956;50.996;13.716;2023-01-19T08:08:11;5.63;;;2.65;;
9834;SDS011;4956;50.996;13.716;2023-01-19T08:11:31;5.57;;;2.22;;
9834;SDS011;4956;50.996;13.716;2023-01-19T08:14:52;4.20;;;2.50;;
9834;SDS011;4956;50.996;13.716;2023-01-19T08:18:12;3.95;;;2.25;;
9834;SDS011;4956;50.996;13.716;2023-01-19T08:21:34;3.53;;;2.38;;
9834;SDS011;4956;50.996;13.716;2023-01-19T08:24:55;3.65;;;2.22;;
9834;SDS011;4956;50.996;13.716;2023-01-19T08:28:16;3.40;;;2.10;;
9834;SDS011;4956;50.996;13.716;2023-01-19T08:31:36;4.22;;;2.10;;
9834;SDS011;4956;50.996;13.716;2023-01-19T08:34:57;2.92;;;2.08;;
9834;SDS011;4956;50.996;13.716;2023-01-19T08:38:17;3.67;;;2.20;;
9834;SDS011;4956;50.996;13.716;2023-01-19T08:41:38;4.03;;;2.08;;
9834;SDS011;4956;50.996;13.716;2023-01-19T08:44:58;4.90;;;2.33;;
9834;SDS011;4956;50.996;13.716;2023-01-19T08:48:19;3.38;;;2.13;;
9834;SDS011;4956;50.996;13.716;2023-01-19T08:51:41;4.88;;;2.20;;
9834;SDS011;4956;50.996;13.716;2023-01-19T08:55:06;6.13;;;2.53;;
9834;SDS011;4956;50.996;13.716;2023-01-19T08:58:27;4.40;;;2.33;;
9834;SDS011;4956;50.996;13.716;2023-01-19T09:01:47;3.75;;;2.08;;
9834;SDS011;4956;50.996;13.716;2023-01-19T09:05:08;5.32;;;2.20;;
9834;SDS011;4956;50.996;13.716;2023-01-19T09:08:28;3.90;;;2.15;;
9834;SDS011;4956;50.996;13.716;2023-01-19T09:11:48;5.07;;;2.10;;
9834;SDS011;4956;50.996;13.716;2023-01-19T09:15:09;5.00;;;2.35;;
9834;SDS011;4956;50.996;13.716;2023-01-19T09:18:31;4.75;;;2.13;;
9834;SDS011;4956;50.996;13.716;2023-01-19T09:21:53;3.30;;;2.10;;
9834;SDS011;4956;50.996;13.716;2023-01-19T09:25:14;3.83;;;2.17;;
9834;SDS011;4956;50.996;13.716;2023-01-19T09:28:34;3.47;;;2.20;;
9834;SDS011;4956;50.996;13.716;2023-01-19T09:31:56;3.17;;;2.20;;
9834;SDS011;4956;50.996;13.716;2023-01-19T09:35:17;4.53;;;2.42;;
9834;SDS011;4956;50.996;13.716;2023-01-19T09:38:37;5.50;;;2.03;;
9834;SDS011;4956;50.996;13.716;2023-01-19T09:42:00;3.33;;;2.13;;
9834;SDS011;4956;50.996;13.716;2023-01-19T09:49:18;4.68;;;2.38;;
9834;SDS011;4956;50.996;13.716;2023-01-19T09:52:40;2.97;;;1.73;;
9834;SDS011;4956;50.996;13.716;2023-01-19T09:56:09;5.20;;;2.97;;
9834;SDS011;4956;50.996;13.716;2023-01-19T09:59:31;5.22;;;2.70;;
9834;SDS011;4956;50.996;13.716;2023-01-19T10:02:57;4.10;;;2.50;;
9834;SDS011;4956;50.996;13.716;2023-01-19T10:06:21;4.55;;;2.58;;
9834;SDS011;4956;50.996;13.716;2023-01-19T10:13:47;5.78;;;3.03;;
9834;SDS011;4956;50.996;13.716;2023-01-19T10:21:01;5.97;;;2.50;;
9834;SDS011;4956;50.996;13.716;2023-01-19T10:24:40;4.10;;;2.33;;
9834;SDS011;4956;50.996;13.716;2023-01-19T10:28:01;4.78;;;2.50;;
9834;SDS011;4956;50.996;13.716;2023-01-19T10:31:23;4.90;;;2.75;;
9834;SDS011;4956;50.996;13.716;2023-01-19T10:34:44;6.88;;;2.60;;
9834;SDS011;4956;50.996;13.716;2023-01-19T10:38:05;3.45;;;2.50;;
9834;SDS011;4956;50.996;13.716;2023-01-19T10:41:38;4.20;;;2.58;;
9834;SDS011;4956;50.996;13.716;2023-01-19T10:45:01;4.88;;;2.70;;
9834;SDS011;4956;50.996;13.716;2023-01-19T10:48:21;5.10;;;2.90;;
9834;SDS011;4956;50.996;13.716;2023-01-19T10:51:46;7.85;;;3.08;;
9834;SDS011;4956;50.996;13.716;2023-01-19T10:55:10;5.25;;;2.72;;
9834;SDS011;4956;50.996;13.716;2023-01-19T10:58:44;5.82;;;2.75;;
9834;SDS011;4956;50.996;13.716;2023-01-19T11:05:40;4.18;;;2.90;;
9834;SDS011;4956;50.996;13.716;2023-01-19T11:09:17;4.88;;;2.90;;
9834;SDS011;4956;50.996;13.716;2023-01-19T11:12:42;6.07;;;2.80;;
9834;SDS011;4956;50.996;13.716;2023-01-19T11:16:26;5.43;;;2.72;;
9834;SDS011;4956;50.996;13.716;2023-01-19T11:19:55;6.28;;;2.90;;
9834;SDS011;4956;50.996;13.716;2023-01-19T11:23:18;3.60;;;2.40;;
9834;SDS011;4956;50.996;13.716;2023-01-19T11:26:46;5.05;;;2.30;;
9834;SDS011;4956;50.996;13.716;2023-01-19T11:30:22;3.20;;;2.42;;
9834;SDS011;4956;50.996;13.716;2023-01-19T11:40:40;6.07;;;2.60;;
9834;SDS011;4956;50.996;13.716;2023-01-19T11:44:15;4.47;;;2.25;;
9834;SDS011;4956;50.996;13.716;2023-01-19T11:47:42;3.42;;;2.30;;
9834;SDS011;4956;50.996;13.716;2023-01-19T11:51:04;4.82;;;2.67;;
9834;SDS011;4956;50.996;13.716;2023-01-19T11:54:34;5.18;;;2.45;;
9834;SDS011;4956;50.996;13.716;2023-01-19T11:57:56;5.53;;;2.75;;
9834;SDS011;4956;50.996;13.716;2023-01-19T12:01:18;4.05;;;2.67;;
9834;SDS011;4956;50.996;13.716;2023-01-19T12:04:40;6.45;;;2.92;;
9834;SDS011;4956;50.996;13.716;2023-01-19T12:08:02;3.95;;;2.58;;
9834;SDS011;4956;50.996;13.716;2023-01-19T12:11:25;6.63;;;2.70;;
9834;SDS011;4956;50.996;13.716;2023-01-19T12:14:54;6.25;;;3.00;;
9834;SDS011;4956;50.996;13.716;2023-01-19T12:18:21;5.15;;;2.90;;
9834;SDS011;4956;50.996;13.716;2023-01-19T12:21:44;3.97;;;3.05;;
9834;SDS011;4956;50.996;13.716;2023-01-19T12:28:41;6.45;;;3.20;;
9834;SDS011;4956;50.996;13.716;2023-01-19T12:42:42;5.63;;;3.25;;
9834;SDS011;4956;50.996;13.716;2023-01-19T12:46:16;4.75;;;3.03;;
9834;SDS011;4956;50.996;13.716;2023-01-19T12:49:48;4.32;;;2.58;;
9834;SDS011;4956;50.996;13.716;2023-01-19T12:53:17;5.05;;;3.22;;
9834;SDS011;4956;50.996;13.716;2023-01-19T12:56:39;4.53;;;2.67;;
9834;SDS011;4956;50.996;13.716;2023-01-19T13:00:04;4.68;;;2.90;;
9834;SDS011;4956;50.996;13.716;2023-01-19T13:14:32;5.43;;;2.50;;
9834;SDS011;4956;50.996;13.716;2023-01-19T13:17:53;4.93;;;3.13;;
9834;SDS011;4956;50.996;13.716;2023-01-19T13:21:26;4.25;;;2.72;;
9834;SDS011;4956;50.996;13.716;2023-01-19T13:25:10;4.60;;;3.08;;
9834;SDS011;4956;50.996;13.716;2023-01-19T13:28:34;3.90;;;2.90;;
9834;SDS011;4956;50.996;13.716;2023-01-19T13:31:58;5.05;;;2.83;;
9834;SDS011;4956;50.996;13.716;2023-01-19T13:35:22;3.97;;;2.80;;
9834;SDS011;4956;50.996;13.716;2023-01-19T13:38:43;5.43;;;3.17;;
9834;SDS011;4956;50.996;13.716;2023-01-19T13:42:04;5.40;;;2.90;;
9834;SDS011;4956;50.996;13.716;2023-01-19T13:45:37;5.80;;;2.75;;
9834;SDS011;4956;50.996;13.716;2023-01-19T13:49:00;4.68;;;2.85;;
9834;SDS011;4956;50.996;13.716;2023-01-19T13:52:24;5.93;;;2.97;;
9834;SDS011;4956;50.996;13.716;2023-01-19T13:55:45;4.88;;;2.90;;
9834;SDS011;4956;50.996;13.716;2023-01-19T13:59:10;5.72;;;3.00;;
9834;SDS011;4956;50.996;13.716;2023-01-19T14:02:31;6.75;;;3.03;;
9834;SDS011;4956;50.996;13.716;2023-01-19T14:05:52;4.43;;;2.70;;
9834;SDS011;4956;50.996;13.716;2023-01-19T14:09:15;4.78;;;2.67;;
9834;SDS011;4956;50.996;13.716;2023-01-19T14:12:37;5.47;;;3.10;;
9834;SDS011;4956;50.996;13.716;2023-01-19T14:15:58;6.72;;;3.20;;
9834;SDS011;4956;50.996;13.716;2023-01-19T14:19:20;5.78;;;3.70;;
9834;SDS011;4956;50.996;13.716;2023-01-19T14:22:42;5.50;;;3.40;;
9834;SDS011;4956;50.996;13.716;2023-01-19T14:26:04;6.25;;;3.38;;
9834;SDS011;4956;50.996;13.716;2023-01-19T14:29:29;6.18;;;3.40;;
9834;SDS011;4956;50.996;13.716;2023-01-19T14:32:51;5.63;;;3.70;;
9834;SDS011;4956;50.996;13.716;2023-01-19T14:36:24;5.55;;;3.58;;
9834;SDS011;4956;50.996;13.716;2023-01-19T14:39:46;5.18;;;3.78;;
9834;SDS011;4956;50.996;13.716;2023-01-19T14:43:11;7.65;;;3.67;;
9834;SDS011;4956;50.996;13.716;2023-01-19T14:46:32;6.65;;;3.90;;
9834;SDS011;4956;50.996;13.716;2023-01-19T14:49:52;9.38;;;4.53;;
9834;SDS011;4956;50.996;13.716;2023-01-19T14:53:15;6.47;;;4.20;;
9834;SDS011;4956;50.996;13.716;2023-01-19T14:56:47;5.13;;;3.67;;
9834;SDS011;4956;50.996;13.716;2023-01-19T15:00:15;6.25;;;3.75;;
9834;SDS011;4956;50.996;13.716;2023-01-19T15:03:37;5.72;;;3.80;;
9834;SDS011;4956;50.996;13.716;2023-01-19T15:06:57;7.18;;;4.10;;
9834;SDS011;4956;50.996;13.716;2023-01-19T15:10:21;7.03;;;4.35;;
9834;SDS011;4956;50.996;13.716;2023-01-19T15:13:42;6.25;;;4.03;;
9834;SDS011;4956;50.996;13.716;2023-01-19T15:17:03;6.28;;;3.97;;
9834;SDS011;4956;50.996;13.716;2023-01-19T15:20:23;6.97;;;3.97;;
9834;SDS011;4956;50.996;13.716;2023-01-19T15:23:43;7.88;;;4.00;;
9834;SDS011;4956;50.996;13.716;2023-01-19T15:27:04;7.22;;;4.50;;
9834;SDS011;4956;50.996;13.716;2023-01-19T15:30:25;8.43;;;4.70;;
9834;SDS011;4956;50.996;13.716;2023-01-19T15:33:48;6.30;;;4.00;;
9834;SDS011;4956;50.996;13.716;2023-01-19T15:37:09;6.63;;;4.55;;
9834;SDS011;4956;50.996;13.716;2023-01-19T15:40:29;7.53;;;4.18;;
9834;SDS011;4956;50.996;13.716;2023-01-19T15:43:50;8.75;;;5.60;;
9834;SDS011;4956;50.996;13.716;2023-01-19T15:47:11;7.70;;;4.97;;
9834;SDS011;4956;50.996;13.716;2023-01-19T15:50:32;7.53;;;4.82;;
9834;SDS011;4956;50.996;13.716;2023-01-19T15:53:53;7.57;;;4.85;;
9834;SDS011;4956;50.996;13.716;2023-01-19T15:57:14;7.75;;;4.53;;
9834;SDS011;4956;50.996;13.716;2023-01-19T16:00:34;7.05;;;5.00;;
9834;SDS011;4956;50.996;13.716;2023-01-19T16:03:57;7.18;;;4.75;;
9834;SDS011;4956;50.996;13.716;2023-01-19T16:07:18;7.70;;;5.05;;
9834;SDS011;4956;50.996;13.716;2023-01-19T16:10:39;7.28;;;4.75;;
9834;SDS011;4956;50.996;13.716;2023-01-19T16:14:00;8.30;;;5.43;;
9834;SDS011;4956;50.996;13.716;2023-01-19T16:17:21;9.55;;;5.65;;
9834;SDS011;4956;50.996;13.716;2023-01-19T16:20:41;8.35;;;5.30;;
9834;SDS011;4956;50.996;13.716;2023-01-19T16:24:02;8.40;;;5.57;;
9834;SDS011;4956;50.996;13.716;2023-01-19T16:27:22;8.57;;;5.57;;
9834;SDS011;4956;50.996;13.716;2023-01-19T16:30:43;7.93;;;5.18;;
9834;SDS011;4956;50.996;13.716;2023-01-19T16:34:03;10.25;;;6.00;;
9834;SDS011;4956;50.996;13.716;2023-01-19T16:37:24;9.75;;;6.30;;
9834;SDS011;4956;50.996;13.716;2023-01-19T16:40:44;13.48;;;6.38;;
9834;SDS011;4956;50.996;13.716;2023-01-19T16:44:05;9.60;;;6.35;;
9834;SDS011;4956;50.996;13.716;2023-01-19T16:47:26;10.75;;;5.75;;
9834;SDS011;4956;50.996;13.716;2023-01-19T16:50:56;9.77;;;5.97;;
9834;SDS011;4956;50.996;13.716;2023-01-19T16:54:23;8.48;;;6.05;;
9834;SDS011;4956;50.996;13.716;2023-01-19T16:57:47;8.45;;;5.38;;
9834;SDS011;4956;50.996;13.716;2023-01-19T17:01:08;8.77;;;5.80;;
9834;SDS011;4956;50.996;13.716;2023-01-19T17:04:30;9.13;;;6.00;;
9834;SDS011;4956;50.996;13.716;2023-01-19T17:07:53;9.52;;;5.97;;
9834;SDS011;4956;50.996;13.716;2023-01-19T17:11:14;9.27;;;5.97;;
9834;SDS011;4956;50.996;13.716;2023-01-19T17:14:39;9.55;;;6.25;;
9834;SDS011;4956;50.996;13.716;2023-01-19T17:18:02;9.63;;;5.53;;
9834;SDS011;4956;50.996;13.716;2023-01-19T17:21:23;11.00;;;6.25;;
9834;SDS011;4956;50.996;13.716;2023-01-19T17:24:44;9.27;;;6.18;;
9834;SDS011;4956;50.996;13.716;2023-01-19T17:28:05;10.80;;;6.07;;
9834;SDS011;4956;50.996;13.716;2023-01-19T17:31:26;7.32;;;5.50;;
9834;SDS011;4956;50.996;13.716;2023-01-19T17:34:49;9.90;;;6.03;;
9834;SDS011;4956;50.996;13.716;2023-01-19T17:38:10;9.23;;;5.43;;
9834;SDS011;4956;50.996;13.716;2023-01-19T17:41:31;8.27;;;5.80;;
9834;SDS011;4956;50.996;13.716;2023-01-19T17:44:53;11.95;;;7.20;;
9834;SDS011;4956;50.996;13.716;2023-01-19T17:48:14;9.88;;;6.60;;
9834;SDS011;4956;50.996;13.716;2023-01-19T17:51:36;13.50;;;8.18;;
9834;SDS011;4956;50.996;13.716;2023-01-19T17:54:57;19.52;;;11.65;;
9834;SDS011;4956;50.996;13.716;2023-01-19T17:58:17;14.18;;;9.02;;
9834;SDS011;4956;50.996;13.716;2023-01-19T18:01:37;12.23;;;8.00;;
9834;SDS011;4956;50.996;13.716;2023-01-19T18:04:59;10.43;;;6.38;;
9834;SDS011;4956;50.996;13.716;2023-01-19T18:08:21;8.35;;;5.53;;
9834;SDS011;4956;50.996;13.716;2023-01-19T18:11:41;7.88;;;5.60;;
9834;SDS011;4956;50.996;13.716;2023-01-19T18:15:05;9.30;;;5.60;;
9834;SDS011;4956;50.996;13.716;2023-01-19T18:18:26;8.40;;;5.32;;
9834;SDS011;4956;50.996;13.716;2023-01-19T18:21:46;8.65;;;5.07;;
9834;SDS011;4956;50.996;13.716;2023-01-19T18:25:07;7.18;;;4.95;;
9834;SDS011;4956;50.996;13.716;2023-01-19T18:28:28;8.15;;;5.35;;
9834;SDS011;4956;50.996;13.716;2023-01-19T18:31:48;7.20;;;4.80;;
9834;SDS011;4956;50.996;13.716;2023-01-19T18:35:08;6.95;;;4.72;;
9834;SDS011;4956;50.996;13.716;2023-01-19T18:38:29;6.97;;;4.50;;
9834;SDS011;4956;50.996;13.716;2023-01-19T18:41:49;6.13;;;4.30;;
9834;SDS011;4956;50.996;13.716;2023-01-19T18:45:09;6.70;;;4.10;;
9834;SDS011;4956;50.996;13.716;2023-01-19T18:48:30;6.35;;;4.82;;
9834;SDS011;4956;50.996;13.716;2023-01-19T18:51:51;7.03;;;4.57;;
9834;SDS011;4956;50.996;13.716;2023-01-19T18:55:11;9.00;;;4.70;;
9834;SDS011;4956;50.996;13.716;2023-01-19T18:58:32;6.43;;;4.40;;
9834;SDS011;4956;50.996;13.716;2023-01-19T19:01:52;5.78;;;4.28;;
9834;SDS011;4956;50.996;13.716;2023-01-19T19:05:13;7.63;;;4.80;;
9834;SDS011;4956;50.996;13.716;2023-01-19T19:08:33;6.07;;;4.13;;
9834;SDS011;4956;50.996;13.716;2023-01-19T19:11:54;6.75;;;4.60;;
9834;SDS011;4956;50.996;13.716;2023-01-19T19:15:14;6.70;;;4.38;;
9834;SDS011;4956;50.996;13.716;2023-01-19T19:18:35;7.53;;;4.40;;
9834;SDS011;4956;50.996;13.716;2023-01-19T19:21:56;9.98;;;6.00;;
9834;SDS011;4956;50.996;13.716;2023-01-19T19:25:17;8.55;;;5.70;;
9834;SDS011;4956;50.996;13.716;2023-01-19T19:28:38;8.30;;;4.78;;
9834;SDS011;4956;50.996;13.716;2023-01-19T19:31:59;7.22;;;4.93;;
9834;SDS011;4956;50.996;13.716;2023-01-19T19:35:19;6.93;;;4.70;;
9834;SDS011;4956;50.996;13.716;2023-01-19T19:38:40;7.07;;;5.13;;
9834;SDS011;4956;50.996;13.716;2023-01-19T19:42:01;8.30;;;4.85;;
9834;SDS011;4956;50.996;13.716;2023-01-19T19:45:22;5.88;;;4.43;;
9834;SDS011;4956;50.996;13.716;2023-01-19T19:48:42;6.07;;;4.35;;
9834;SDS011;4956;50.996;13.716;2023-01-19T19:52:02;7.30;;;4.72;;
9834;SDS011;4956;50.996;13.716;2023-01-19T19:55:23;5.63;;;4.80;;
9834;SDS011;4956;50.996;13.716;2023-01-19T19:58:43;6.50;;;4.90;;
9834;SDS011;4956;50.996;13.716;2023-01-19T20:02:04;5.57;;;4.53;;
9834;SDS011;4956;50.996;13.716;2023-01-19T20:05:24;6.50;;;4.72;;
9834;SDS011;4956;50.996;13.716;2023-01-19T20:08:44;6.95;;;4.68;;
9834;SDS011;4956;50.996;13.716;2023-01-19T20:12:05;8.18;;;4.78;;
9834;SDS011;4956;50.996;13.716;2023-01-19T20:15:28;7.60;;;4.82;;
9834;SDS011;4956;50.996;13.716;2023-01-19T20:18:50;8.20;;;4.72;;
9834;SDS011;4956;50.996;13.716;2023-01-19T20:22:13;6.03;;;4.53;;
9834;SDS011;4956;50.996;13.716;2023-01-19T20:25:36;7.47;;;5.00;;
9834;SDS011;4956;50.996;13.716;2023-01-19T20:28:58;6.50;;;4.90;;
9834;SDS011;4956;50.996;13.716;2023-01-19T20:32:40;8.02;;;5.50;;
9834;SDS011;4956;50.996;13.716;2023-01-19T20:36:00;8.02;;;4.43;;
9834;SDS011;4956;50.996;13.716;2023-01-19T20:39:21;7.30;;;4.68;;
9834;SDS011;4956;50.996;13.716;2023-01-19T20:42:44;7.07;;;4.82;;
9834;SDS011;4956;50.996;13.716;2023-01-19T20:46:04;7.85;;;5.30;;
9834;SDS011;4956;50.996;13.716;2023-01-19T20:49:27;6.07;;;4.88;;
9834;SDS011;4956;50.996;13.716;2023-01-19T20:52:47;6.55;;;4.63;;
9834;SDS011;4956;50.996;13.716;2023-01-19T20:56:09;6.43;;;5.35;;
9834;SDS011;4956;50.996;13.716;2023-01-19T20:59:30;7.18;;;5.05;;
9834;SDS011;4956;50.996;13.716;2023-01-19T21:02:53;7.00;;;5.18;;
9834;SDS011;4956;50.996;13.716;2023-01-19T21:06:16;9.18;;;5.47;;
9834;SDS011;4956;50.996;13.716;2023-01-19T21:09:37;7.07;;;4.68;;
9834;SDS011;4956;50.996;13.716;2023-01-19T21:13:05;7.82;;;4.88;;
9834;SDS011;4956;50.996;13.716;2023-01-19T21:16:28;8.32;;;5.30;;
9834;SDS011;4956;50.996;13.716;2023-01-19T21:19:50;7.70;;;5.20;;
9834;SDS011;4956;50.996;13.716;2023-01-19T21:23:10;6.93;;;5.20;;
9834;SDS011;4956;50.996;13.716;2023-01-19T21:26:33;9.48;;;5.72;;
9834;SDS011;4956;50.996;13.716;2023-01-19T21:29:54;7.18;;;5.68;;
9834;SDS011;4956;50.996;13.716;2023-01-19T21:33:15;10.52;;;6.45;;
9834;SDS011;4956;50.996;13.716;2023-01-19T21:36:36;7.70;;;5.95;;